Time;durP1;ratioP1;P1;durP2;ratioP2;P2;SDS_P1;SDS_P2;PMS_P1;PMS_P2;Temp;Humidity;BMP_temperature;BMP_pressure;BME280_temperature;BME280_humidity;BME280_pressure;Samples;Min_cycle;Max_cycle;Signal;HPM_P1;HPM_P2
2023/10/23 00:00:14;;;;;;;;;;;;;;;-144.99;100.00;52572.44;5084980;28;20029;-73
2023/10/23 00:02:41;;;;;;;;;;;;;;;-144.99;100.00;52578.53;5083057;28;20054;-72
2023/10/23 00:05:08;;;;;;;;;;;;;;;-144.99;100.00;52598.94;5081438;28;20026;-72
2023/10/23 00:07:34;;;;;;;;;;;;;;;-144.99;100.00;52554.09;5083397;28;20006;-72
2023/10/23 00:10:02;;;;;;;;;;;;;;;-144.99;100.00;52574.47;5128056;22;20373;-73
2023/10/23 00:12:29;;;;;;;;;;;;;;;-144.99;100.00;52619.31;5132697;27;20333;-72
2023/10/23 00:14:55;;;;;;;;;;;;;;;-144.99;100.00;52588.75;4777857;27;10000591;-74
2023/10/23 00:17:22;;;;;;;;;;;;;;;-144.99;100.00;52582.63;5136591;27;20030;-73
2023/10/23 00:19:48;;;;;;;;;;;;;;;-144.99;100.00;52584.66;5149210;27;20300;-74
2023/10/23 00:22:14;;;;;;;;;;;;;;;-144.99;100.00;52603.00;5151256;27;19926;-74
2023/10/23 00:24:41;;;;;;;;;;;;;;;-144.99;100.00;52582.63;5154541;27;20175;-74
2023/10/23 00:27:09;;;;;;;;;;;;;;;-144.99;100.00;52582.63;5164223;27;19927;-73
2023/10/23 00:29:35;;;;;;;;;;;;;;;-144.99;100.00;52570.38;5163449;27;19923;-73
2023/10/23 00:32:01;;;;;;;;;;;;;;;-144.99;100.00;52578.53;5164803;27;20340;-73
2023/10/23 00:34:28;;;;;;;;;;;;;;;-144.99;100.00;52578.53;5172043;27;19954;-73
2023/10/23 00:36:54;;;;;;;;;;;;;;;-144.99;100.00;52590.78;5164175;27;19973;-72
2023/10/23 00:39:21;;;;;;;;;;;;;;;-144.99;100.00;52566.31;5164201;27;19952;-72
2023/10/23 00:41:47;;;;;;;;;;;;;;;-144.99;100.00;52582.63;5168322;27;19969;-72
2023/10/23 00:44:15;;;;;;;;;;;;;;;-144.99;100.00;52582.63;5168746;27;20384;-73
2023/10/23 00:46:43;;;;;;;;;;;;;;;-144.99;100.00;52607.09;5170010;27;19966;-72
2023/10/23 00:49:09;;;;;;;;;;;;;;;-144.99;100.00;52594.84;5163228;27;19958;-72
2023/10/23 00:51:36;;;;;;;;;;;;;;;-144.99;100.00;52590.78;5167935;27;19934;-73
2023/10/23 00:54:02;;;;;;;;;;;;;;;-144.99;100.00;52586.69;5161252;27;19973;-72
2023/10/23 00:56:29;;;;;;;;;;;;;;;-144.99;100.00;52611.16;5162760;27;20462;-73
2023/10/23 00:58:56;;;;;;;;;;;;;;;-144.99;100.00;52584.66;5161903;27;20409;-72
2023/10/23 01:01:24;;;;;;;;;;;;;;;-144.99;100.00;52574.47;5156537;27;20371;-72
2023/10/23 01:03:50;;;;;;;;;;;;;;;-144.99;100.00;52562.25;5159113;27;19923;-75
2023/10/23 01:06:17;;;;;;;;;;;;;;;-144.99;100.00;52558.16;5162158;27;20334;-74
2023/10/23 01:08:43;;;;;;;;;;;;;;;-144.99;100.00;52574.47;5165402;27;19999;-76
2023/10/23 01:11:10;;;;;;;;;;;;;;;-144.99;100.00;52594.84;5173869;27;19927;-75
2023/10/23 01:13:36;;;;;;;;;;;;;;;-144.99;100.00;52582.63;5162689;27;19934;-74
2023/10/23 01:16:03;;;;;;;;;;;;;;;-144.99;100.00;52590.78;5163863;27;19945;-74
2023/10/23 01:18:30;;;;;;;;;;;;;;;-144.99;100.00;52578.53;5164969;27;19970;-74
2023/10/23 01:20:57;;;;;;;;;;;;;;;-144.99;100.00;52598.94;5168254;27;19923;-73
2023/10/23 01:23:25;;;;;;;;;;;;;;;-144.99;100.00;52566.31;5151655;27;19934;-74
2023/10/23 01:25:52;;;;;;;;;;;;;;;-144.99;100.00;52590.78;5159728;27;19930;-74
2023/10/23 01:28:19;;;;;;;;;;;;;;;-144.99;100.00;52582.63;5169066;27;19923;-73
2023/10/23 01:30:45;;;;;;;;;;;;;;;-144.99;100.00;52545.94;5172741;27;19923;-73
2023/10/23 01:33:12;;;;;;;;;;;;;;;-144.99;100.00;52582.63;5160301;27;19998;-73
2023/10/23 01:35:38;;;;;;;;;;;;;;;-144.99;100.00;52586.69;5162794;27;19960;-73
2023/10/23 01:38:05;;;;;;;;;;;;;;;-144.99;100.00;52545.94;5164245;27;19923;-73
2023/10/23 01:40:31;;;;;;;;;;;;;;;-144.99;100.00;52578.53;5178319;27;19936;-73
2023/10/23 01:42:59;;;;;;;;;;;;;;;-144.99;100.00;52568.34;5172873;27;19931;-74
2023/10/23 01:45:25;;;;;;;;;;;;;;;-144.99;100.00;52550.00;5172647;27;19990;-74
2023/10/23 01:47:52;;;;;;;;;;;;;;;-144.99;100.00;52568.34;5167128;27;20175;-72
2023/10/23 01:50:18;;;;;;;;;;;;;;;-144.99;100.00;52568.34;5173361;27;19938;-72
2023/10/23 01:52:44;;;;;;;;;;;;;;;-144.99;100.00;52600.97;5168159;27;20037;-73
2023/10/23 01:55:11;;;;;;;;;;;;;;;-144.99;100.00;52578.53;5163407;27;19987;-72
2023/10/23 01:57:37;;;;;;;;;;;;;;;-144.99;100.00;52566.31;5167902;27;19934;-73
2023/10/23 02:00:06;;;;;;;;;;;;;;;-144.99;100.00;52578.53;5167814;27;19927;-72
2023/10/23 02:02:33;;;;;;;;;;;;;;;-144.99;100.00;52556.13;5162444;27;19935;-74
2023/10/23 02:05:00;;;;;;;;;;;;;;;-144.99;100.00;52586.69;5168006;27;19931;-73
2023/10/23 02:07:27;;;;;;;;;;;;;;;-144.99;100.00;52545.94;5161083;27;19927;-73
2023/10/23 02:09:54;;;;;;;;;;;;;;;-144.99;100.00;52578.53;5160715;27;19927;-73
2023/10/23 02:12:20;;;;;;;;;;;;;;;-144.99;100.00;52578.53;5173925;27;19922;-73
2023/10/23 02:14:50;;;;;;;;;;;;;;;-144.99;100.00;52598.94;5166777;27;19966;-72
2023/10/23 02:17:18;;;;;;;;;;;;;;;-144.99;100.00;52566.31;5163936;27;19923;-72
2023/10/23 02:19:44;;;;;;;;;;;;;;;-144.99;100.00;52578.53;5171909;27;19919;-74
2023/10/23 02:22:11;;;;;;;;;;;;;;;-144.99;100.00;52582.63;5164499;27;19937;-74
2023/10/23 02:24:37;;;;;;;;;;;;;;;-144.99;100.00;52582.63;5166463;27;19978;-73
2023/10/23 02:27:04;;;;;;;;;;;;;;;-144.99;100.00;52586.69;5149017;27;19958;-74
2023/10/23 02:29:30;;;;;;;;;;;;;;;-144.99;100.00;52574.47;5160409;27;19931;-74
2023/10/23 02:31:57;;;;;;;;;;;;;;;-144.99;100.00;52566.31;5161656;27;19955;-73
2023/10/23 02:34:24;;;;;;;;;;;;;;;-144.99;100.00;52590.78;5170914;27;19954;-74
2023/10/23 02:36:51;;;;;;;;;;;;;;;-144.99;100.00;52596.88;5159382;27;19927;-73
2023/10/23 02:39:17;;;;;;;;;;;;;;;-144.99;100.00;52529.63;5153475;27;19930;-73
2023/10/23 02:41:44;;;;;;;;;;;;;;;-144.99;100.00;52570.38;5173532;27;19986;-74
2023/10/23 02:44:10;;;;;;;;;;;;;;;-144.99;100.00;52578.53;5169509;27;19918;-74
2023/10/23 02:46:38;;;;;;;;;;;;;;;-144.99;100.00;52554.09;5166714;27;19930;-74
2023/10/23 02:49:05;;;;;;;;;;;;;;;-144.99;100.00;52578.53;5149821;27;20089;-74
2023/10/23 02:51:33;;;;;;;;;;;;;;;-144.99;100.00;52541.84;5164837;27;19923;-73
2023/10/23 02:54:00;;;;;;;;;;;;;;;-144.99;100.00;52545.94;5163719;27;19938;-73
2023/10/23 02:56:26;;;;;;;;;;;;;;;-144.99;100.00;52582.63;5158581;27;19923;-73
2023/10/23 02:58:52;;;;;;;;;;;;;;;-144.99;100.00;52554.09;5155302;27;19955;-74
2023/10/23 03:01:20;;;;;;;;;;;;;;;-144.99;100.00;52545.94;5168770;27;19962;-74
2023/10/23 03:03:46;;;;;;;;;;;;;;;-144.99;100.00;52564.28;5173928;27;20161;-74
2023/10/23 03:06:13;;;;;;;;;;;;;;;-144.99;100.00;52570.38;5165174;27;19938;-74
2023/10/23 03:08:41;;;;;;;;;;;;;;;-144.99;100.00;52590.78;5153351;27;19963;-72
2023/10/23 03:11:09;;;;;;;;;;;;;;;-144.99;100.00;52578.53;5152208;27;19992;-72
2023/10/23 03:13:35;;;;;;;;;;;;;;;-144.99;100.00;52603.00;5147594;27;20014;-72
2023/10/23 03:16:02;;;;;;;;;;;;;;;-144.99;100.00;52576.50;5147472;27;19924;-72
2023/10/23 03:18:29;;;;;;;;;;;;;;;-144.99;100.00;52594.84;5146328;27;19931;-72
2023/10/23 03:20:59;;;;;;;;;;;;;;;-144.99;100.00;52554.09;5137417;27;19930;-73
2023/10/23 03:23:25;;;;;;;;;;;;;;;-144.99;100.00;52550.00;5142441;27;20419;-73
2023/10/23 03:25:53;;;;;;;;;;;;;;;-144.99;100.00;52537.78;5148237;27;20013;-72
2023/10/23 03:28:19;;;;;;;;;;;;;;;-144.99;100.00;52570.38;5151327;27;20041;-72
2023/10/23 03:30:46;;;;;;;;;;;;;;;-144.99;100.00;52586.69;5152059;27;20482;-73
2023/10/23 03:33:13;;;;;;;;;;;;;;;-144.99;100.00;52560.19;5149331;27;19927;-72
2023/10/23 03:35:42;;;;;;;;;;;;;;;-144.99;100.00;52560.19;5181506;27;19922;-74
2023/10/23 03:38:08;;;;;;;;;;;;;;;-144.99;100.00;52550.00;5174301;27;19976;-73
2023/10/23 03:40:34;;;;;;;;;;;;;;;-144.99;100.00;52562.25;5156072;27;20361;-73
2023/10/23 03:43:02;;;;;;;;;;;;;;;-144.99;100.00;52582.63;5146429;27;20026;-73
2023/10/23 03:45:29;;;;;;;;;;;;;;;-144.99;100.00;52562.25;5159524;27;20005;-72
2023/10/23 03:47:55;;;;;;;;;;;;;;;-144.99;100.00;52550.00;5155119;27;19958;-74
2023/10/23 03:50:21;;;;;;;;;;;;;;;-144.99;100.00;52552.03;5160020;27;19974;-74
2023/10/23 03:52:48;;;;;;;;;;;;;;;-144.99;100.00;52558.16;5150816;27;20062;-73
2023/10/23 03:55:14;;;;;;;;;;;;;;;-144.99;100.00;52558.16;5152547;27;19923;-75
2023/10/23 03:57:41;;;;;;;;;;;;;;;-144.99;100.00;52525.56;5151689;27;20213;-74
2023/10/23 04:00:10;;;;;;;;;;;;;;;-144.99;100.00;52537.78;5151299;27;20424;-74
2023/10/23 04:02:37;;;;;;;;;;;;;;;-144.99;100.00;52598.94;5151692;27;19927;-73
2023/10/23 04:05:03;;;;;;;;;;;;;;;-144.99;100.00;52541.84;5147698;27;20341;-73
2023/10/23 04:07:30;;;;;;;;;;;;;;;-144.99;100.00;52576.50;5147257;27;20063;-74
2023/10/23 04:09:56;;;;;;;;;;;;;;;-144.99;100.00;52574.47;5151305;27;19950;-75
2023/10/23 04:12:23;;;;;;;;;;;;;;;-144.99;100.00;52554.09;5154366;27;20014;-73
2023/10/23 04:14:49;;;;;;;;;;;;;;;-144.99;100.00;52578.53;5168462;27;19911;-74
2023/10/23 04:17:17;;;;;;;;;;;;;;;-144.99;100.00;52556.13;5164252;27;19948;-74
2023/10/23 04:19:43;;;;;;;;;;;;;;;-144.99;100.00;52590.78;5153818;27;19931;-74
2023/10/23 04:22:10;;;;;;;;;;;;;;;-144.99;100.00;52586.69;5142577;27;19932;-72
2023/10/23 04:24:36;;;;;;;;;;;;;;;-144.99;100.00;52550.00;5148872;27;19958;-72
2023/10/23 04:27:03;;;;;;;;;;;;;;;-144.99;100.00;52590.78;5147958;27;19976;-73
2023/10/23 04:29:30;;;;;;;;;;;;;;;-144.99;100.00;52582.63;5147172;27;19951;-74
2023/10/23 04:31:56;;;;;;;;;;;;;;;-144.99;100.00;52582.63;5153994;27;20010;-73
2023/10/23 04:34:24;;;;;;;;;;;;;;;-144.99;100.00;52566.31;5152326;27;19923;-74
2023/10/23 04:36:50;;;;;;;;;;;;;;;-144.99;100.00;52588.75;5150734;27;19952;-74
2023/10/23 04:39:17;;;;;;;;;;;;;;;-144.99;100.00;52598.94;5164830;27;19931;-74
2023/10/23 04:41:43;;;;;;;;;;;;;;;-144.99;100.00;52594.84;5159799;27;20156;-75
2023/10/23 04:44:10;;;;;;;;;;;;;;;-144.99;100.00;52594.84;5162482;27;19974;-74
2023/10/23 04:46:36;;;;;;;;;;;;;;;-144.99;100.00;52582.63;5150845;27;19966;-74
2023/10/23 04:49:03;;;;;;;;;;;;;;;-144.99;100.00;52578.53;5157320;27;19957;-74
2023/10/23 04:51:33;;;;;;;;;;;;;;;-144.99;100.00;52613.19;5165657;27;20313;-74
2023/10/23 04:53:59;;;;;;;;;;;;;;;-144.99;100.00;52586.69;5173431;27;19919;-75
2023/10/23 04:56:25;;;;;;;;;;;;;;;-144.99;100.00;52543.91;5170507;27;19927;-76
2023/10/23 04:58:52;;;;;;;;;;;;;;;-144.99;100.00;52598.94;5156149;27;19962;-74
2023/10/23 05:01:18;;;;;;;;;;;;;;;-144.99;100.00;52574.47;5156059;27;19970;-75
2023/10/23 05:03:45;;;;;;;;;;;;;;;-144.99;100.00;52497.00;5160674;27;19935;-75
2023/10/23 05:06:11;;;;;;;;;;;;;;;-144.99;100.00;52594.84;5163082;27;20156;-75
2023/10/23 05:08:39;;;;;;;;;;;;;;;-144.99;100.00;52545.94;5166444;27;20006;-76
2023/10/23 05:11:06;;;;;;;;;;;;;;;-144.99;100.00;52564.28;5166936;27;20018;-74
2023/10/23 05:13:32;;;;;;;;;;;;;;;-144.99;100.00;52582.63;5164686;27;20232;-75
2023/10/23 05:16:04;;;;;;;;;;;;;;;-144.99;100.00;52550.00;4801365;27;10000280;-76
2023/10/23 05:18:30;;;;;;;;;;;;;;;-144.99;100.00;52558.16;5159594;27;19931;-74
2023/10/23 05:20:57;;;;;;;;;;;;;;;-144.99;100.00;52533.69;5151290;27;20360;-75
2023/10/23 05:23:23;;;;;;;;;;;;;;;-144.99;100.00;52570.38;5160301;27;19924;-74
2023/10/23 05:25:51;;;;;;;;;;;;;;;-144.99;100.00;52554.09;5158795;27;19980;-74
2023/10/23 05:28:18;;;;;;;;;;;;;;;-144.99;100.00;52574.47;5158319;27;19958;-74
2023/10/23 05:30:44;;;;;;;;;;;;;;;-144.99;100.00;52603.00;5168732;27;19911;-76
2023/10/23 05:33:10;;;;;;;;;;;;;;;-144.99;100.00;52576.50;5169883;27;19922;-74
2023/10/23 05:35:37;;;;;;;;;;;;;;;-144.99;100.00;52598.94;5176123;27;19954;-74
2023/10/23 05:38:03;;;;;;;;;;;;;;;-144.99;100.00;52545.94;5158931;27;19927;-75
2023/10/23 05:40:30;;;;;;;;;;;;;;;-144.99;100.00;52566.31;5175068;27;19952;-75
2023/10/23 05:42:58;;;;;;;;;;;;;;;-144.99;100.00;52566.31;5160071;27;20309;-75
2023/10/23 05:45:24;;;;;;;;;;;;;;;-144.99;100.00;52554.09;5153619;27;19975;-75
2023/10/23 05:47:50;;;;;;;;;;;;;;;-144.99;100.00;52617.28;5156320;27;19962;-75
2023/10/23 05:50:17;;;;;;;;;;;;;;;-144.99;100.00;52590.78;5160834;27;19934;-75
2023/10/23 05:52:44;;;;;;;;;;;;;;;-144.99;100.00;52574.47;5159541;27;19998;-75
2023/10/23 05:55:10;;;;;;;;;;;;;;;-144.99;100.00;52574.47;5162128;27;19949;-75
2023/10/23 05:57:37;;;;;;;;;;;;;;;-144.99;100.00;52554.09;5158557;27;19960;-75
2023/10/23 06:00:08;;;;;;;;;;;;;;;-144.99;100.00;52556.13;5161078;27;19923;-74
2023/10/23 06:02:35;;;;;;;;;;;;;;;-144.99;100.00;52550.00;5159402;27;20061;-74
2023/10/23 06:05:01;;;;;;;;;;;;;;;-144.99;100.00;52586.69;5161205;27;19973;-75
2023/10/23 06:07:29;;;;;;;;;;;;;;;-144.99;100.00;52529.63;5149513;27;19926;-75
2023/10/23 06:09:56;;;;;;;;;;;;;;;-144.99;100.00;52584.66;5161083;22;19928;-66
2023/10/23 06:12:23;;;;;;;;;;;;;;;-144.99;100.00;52600.97;5075776;28;20376;-66
2023/10/23 06:14:49;;;;;;;;;;;;;;;-144.99;100.00;52580.59;5070182;28;20043;-66
2023/10/23 06:17:17;;;;;;;;;;;;;;;-144.99;100.00;52574.47;5076586;28;20018;-66
2023/10/23 06:19:44;;;;;;;;;;;;;;;-144.99;100.00;52560.19;5056483;28;19935;-66
2023/10/23 06:22:10;;;;;;;;;;;;;;;-144.99;100.00;52558.16;5072381;28;19925;-66
2023/10/23 06:24:37;;;;;;;;;;;;;;;-144.99;100.00;52568.34;5056613;28;19938;-66
2023/10/23 06:27:03;;;;;;;;;;;;;;;-144.99;100.00;52554.09;5069134;28;19924;-66
2023/10/23 06:29:30;;;;;;;;;;;;;;;-144.99;100.00;52545.94;5060139;28;19993;-65
2023/10/23 06:31:57;;;;;;;;;;;;;;;-144.99;100.00;52611.16;5070324;28;19928;-66
2023/10/23 06:34:25;;;;;;;;;;;;;;;-144.99;100.00;52603.00;5064125;28;20303;-65
2023/10/23 06:36:51;;;;;;;;;;;;;;;-144.99;100.00;52529.63;5080391;28;20018;-67
2023/10/23 06:39:17;;;;;;;;;;;;;;;-144.99;100.00;52570.38;5065701;28;19960;-66
2023/10/23 06:41:44;;;;;;;;;;;;;;;-144.99;100.00;52533.69;5071221;28;20011;-64
2023/10/23 06:44:10;;;;;;;;;;;;;;;-144.99;100.00;52554.09;5062723;28;19929;-66
2023/10/23 06:46:37;;;;;;;;;;;;;;;-144.99;100.00;52543.91;5073191;28;19964;-66
2023/10/23 06:49:04;;;;;;;;;;;;;;;-144.99;100.00;52533.69;5077491;28;19974;-66
2023/10/23 06:51:32;;;;;;;;;;;;;;;-144.99;100.00;52539.81;5062112;28;19972;-66
2023/10/23 06:53:59;;;;;;;;;;;;;;;-144.99;100.00;52529.63;5075401;28;20133;-66
2023/10/23 06:56:25;;;;;;;;;;;;;;;-144.99;100.00;52521.47;5071477;28;19932;-68
2023/10/23 06:58:52;;;;;;;;;;;;;;;-144.99;100.00;52545.94;5070168;28;20010;-66
2023/10/23 07:01:18;;;;;;;;;;;;;;;-144.99;100.00;52572.44;5064272;28;20102;-67
2023/10/23 07:03:45;;;;;;;;;;;;;;;-144.99;100.00;52488.84;5067126;28;20088;-66
2023/10/23 07:06:11;;;;;;;;;;;;;;;-144.99;100.00;52505.16;5072383;28;19924;-65
2023/10/23 07:08:40;;;;;;;;;;;;;;;-144.99;100.00;52545.94;5075465;28;19949;-66
2023/10/23 07:11:12;;;;;;;;;;;;;;;-144.99;100.00;52505.16;5069391;28;20019;-66
2023/10/23 07:13:38;;;;;;;;;;;;;;;-144.99;100.00;52541.84;5071677;28;20388;-65
2023/10/23 07:16:05;;;;;;;;;;;;;;;-144.99;100.00;52505.16;5071036;28;20031;-66
2023/10/23 07:18:32;;;;;;;;;;;;;;;-144.99;100.00;52488.84;5071203;28;19936;-66
2023/10/23 07:20:59;;;;;;;;;;;;;;;-144.99;100.00;52533.69;5075740;28;19978;-66
2023/10/23 07:23:26;;;;;;;;;;;;;;;-144.99;100.00;52523.50;5073610;28;20251;-66
2023/10/23 07:26:07;;;;;;;;;;;;;;;-144.99;100.00;52505.16;5077303;28;19924;-67
2023/10/23 07:28:34;;;;;;;;;;;;;;;-144.99;100.00;52521.47;5067619;28;19935;-67
2023/10/23 07:31:02;;;;;;;;;;;;;;;-144.99;100.00;52517.41;5079340;28;19928;-67
2023/10/23 07:33:28;;;;;;;;;;;;;;;-144.99;100.00;52501.09;5065648;28;20401;-67
2023/10/23 07:36:02;;;;;;;;;;;;;;;-144.99;100.00;52521.47;5066188;28;20051;-66
2023/10/23 07:38:29;;;;;;;;;;;;;;;-144.99;100.00;52476.63;5071216;28;20228;-67
2023/10/23 07:40:55;;;;;;;;;;;;;;;-144.99;100.00;52464.41;5078005;28;19964;-57
2023/10/23 07:43:23;;;;;;;;;;;;;;;-144.99;100.00;52519.44;5067926;28;20437;-57
2023/10/23 07:45:50;;;;;;;;;;;;;;;-144.99;100.00;52529.63;5076359;28;20177;-57
2023/10/23 07:48:16;;;;;;;;;;;;;;;-144.99;100.00;52505.16;5077739;28;20528;-58
2023/10/23 07:50:43;;;;;;;;;;;;;;;-144.99;100.00;52513.31;5075346;28;19940;-58
2023/10/23 07:53:09;;;;;;;;;;;;;;;-144.99;100.00;52541.84;5075211;28;20173;-58
2023/10/23 07:55:36;;;;;;;;;;;;;;;-144.99;100.00;52492.94;5063610;28;19956;-58
2023/10/23 07:58:03;;;;;;;;;;;;;;;-144.99;100.00;52511.28;5082781;28;20007;-58
2023/10/23 08:00:31;;;;;;;;;;;;;;;-144.99;100.00;52476.63;5075984;28;19959;-58
2023/10/23 08:02:57;;;;;;;;;;;;;;;-144.99;100.00;52501.09;5069980;28;19979;-58
2023/10/23 08:05:24;;;;;;;;;;;;;;;-144.99;100.00;52517.41;5078016;28;20321;-57
2023/10/23 08:07:50;;;;;;;;;;;;;;;-144.99;100.00;52497.00;5076939;28;19959;-58
2023/10/23 08:10:17;;;;;;;;;;;;;;;-144.99;100.00;52497.00;5073650;28;20313;-57
2023/10/23 08:12:46;;;;;;;;;;;;;;;-144.99;100.00;52472.56;5073642;28;20011;-58
2023/10/23 08:15:12;;;;;;;;;;;;;;;-144.99;100.00;52501.09;5071425;28;20331;-59
2023/10/23 08:17:40;;;;;;;;;;;;;;;-144.99;100.00;52472.56;5067551;28;20031;-58
2023/10/23 08:20:08;;;;;;;;;;;;;;;-144.99;99.66;52492.94;5076505;28;20106;-58
2023/10/23 08:22:34;;;;;;;;;;;;;;;-144.99;99.06;52497.00;5073704;28;19950;-58
2023/10/23 08:25:01;;;;;;;;;;;;;;;-144.99;98.33;52501.09;5066332;28;19936;-58
2023/10/23 08:27:27;;;;;;;;;;;;;;;-144.99;98.40;52480.72;5072340;28;20024;-58
2023/10/23 08:29:54;;;;;;;;;;;;;;;-144.99;98.46;52499.06;5076488;28;20246;-59
2023/10/23 08:32:20;;;;;;;;;;;;;;;-144.99;97.38;52468.47;5068943;28;19934;-58
2023/10/23 08:34:52;;;;;;;;;;;;;;;-144.99;96.29;52482.75;5073946;28;19932;-58
2023/10/23 08:37:18;;;;;;;;;;;;;;;-144.99;94.99;52435.88;5061761;28;20495;-58
2023/10/23 08:39:45;;;;;;;;;;;;;;;-144.99;94.64;52480.72;5071230;28;19982;-58
2023/10/23 08:42:12;;;;;;;;;;;;;;;-144.99;92.50;52476.63;5070566;28;19935;-58
2023/10/23 08:44:37;;;;;;;;;;;;;;;-144.99;88.99;52427.72;5074697;28;20034;-58
2023/10/23 08:47:04;;;;;;;;;;;;;;;-144.99;88.09;52399.19;5073273;28;19928;-67
2023/10/23 08:49:31;;;;;;;;;;;;;;;-144.99;85.56;52490.91;5065821;28;19955;-67
2023/10/23 08:51:59;;;;;;;;;;;;;;;-144.99;86.30;52439.94;5065102;28;19974;-67
2023/10/23 08:54:27;;;;;;;;;;;;;;;-144.99;86.93;52480.72;5080057;28;19924;-67
2023/10/23 08:56:54;;;;;;;;;;;;;;;-144.99;86.03;52456.25;5072996;28;19928;-67
2023/10/23 08:59:21;;;;;;;;;;;;;;;-144.99;84.61;52444.03;5061439;28;20026;-67
2023/10/23 09:01:47;;;;;;;;;;;;;;;-144.99;82.25;52415.47;5076657;28;19986;-67
2023/10/23 09:04:14;;;;;;;;;;;;;;;-144.99;80.27;52431.78;5075502;28;19964;-67
2023/10/23 09:06:42;;;;;;;;;;;;;;;-144.99;79.78;52395.09;5065621;28;20350;-67
2023/10/23 09:09:10;;;;;;;;;;;;;;;-144.99;77.50;52415.47;5067493;28;19928;-67
2023/10/23 09:11:41;;;;;;;;;;;;;;;-144.99;75.19;52374.72;5067501;28;19959;-67
2023/10/23 09:14:07;;;;;;;;;;;;;;;-144.99;75.38;52427.72;5066648;28;20384;-68
2023/10/23 09:16:34;;;;;;;;;;;;;;;-144.99;74.36;52435.88;5078129;28;19970;-67
2023/10/23 09:19:00;;;;;;;;;;;;;;;-144.99;74.41;52374.72;5072436;28;19955;-67
2023/10/23 09:21:27;;;;;;;;;;;;;;;-144.99;73.33;52476.63;5071516;28;19983;-67
2023/10/23 09:23:54;;;;;;;;;;;;;;;-144.99;72.83;52446.06;5066434;28;19928;-67
2023/10/23 09:26:22;;;;;;;;;;;;;;;-144.99;72.08;52391.03;5071092;28;20673;-67
2023/10/23 09:28:51;;;;;;;;;;;;;;;-144.99;71.81;52415.47;5066716;28;19998;-68
2023/10/23 09:31:18;;;;;;;;;;;;;;;-144.99;71.58;52399.19;5066743;28;19938;-67
2023/10/23 09:33:44;;;;;;;;;;;;;;;-144.99;71.45;52399.19;5074494;28;19959;-68
2023/10/23 09:36:11;;;;;;;;;;;;;;;-144.99;70.51;52321.72;5080782;28;19934;-67
2023/10/23 09:38:39;;;;;;;;;;;;;;;-144.99;69.26;52358.41;5071931;28;19982;-67
2023/10/23 09:41:08;;;;;;;;;;;;;;;-144.99;67.39;52342.09;5066625;28;20002;-67
2023/10/23 09:43:37;;;;;;;;;;;;;;;-144.99;65.15;52313.56;5068016;28;20029;-67
2023/10/23 09:46:04;;;;;;;;;;;;;;;-144.99;64.64;52305.41;5072539;28;20607;-66
2023/10/23 09:48:31;;;;;;;;;;;;;;;-144.99;64.96;52346.19;5069748;28;19928;-67
2023/10/23 09:51:00;;;;;;;;;;;;;;;-144.99;64.46;52333.94;5070977;28;19932;-67
2023/10/23 09:53:28;;;;;;;;;;;;;;;-144.99;63.68;52350.25;5068700;28;20018;-67
2023/10/23 09:55:55;;;;;;;;;;;;;;;-144.99;63.35;52350.25;5072211;28;20364;-67
2023/10/23 09:58:24;;;;;;;;;;;;;;;-144.99;61.90;52354.34;5067522;28;20360;-64
2023/10/23 10:00:53;;;;;;;;;;;;;;;-144.99;61.58;52329.88;5054808;28;19932;-59
2023/10/23 10:03:22;;;;;;;;;;;;;;;-144.99;62.17;52374.72;5069643;28;19928;-59
2023/10/23 10:05:51;;;;;;;;;;;;;;;-144.99;62.97;52364.53;5072961;28;19982;-59
2023/10/23 10:08:19;;;;;;;;;;;;;;;-144.99;64.27;52360.44;5066131;28;20039;-58
2023/10/23 10:10:47;;;;;;;;;;;;;;;-144.99;64.74;52391.03;5078112;28;19924;-58
2023/10/23 10:13:15;;;;;;;;;;;;;;;-144.99;63.66;52403.25;5063357;28;19924;-62
2023/10/23 10:15:42;;;;;;;;;;;;;;;-144.99;62.76;52323.75;5073248;28;20043;-58
2023/10/23 10:18:11;;;;;;;;;;;;;;;-144.99;61.57;52301.34;5069700;28;20019;-59
2023/10/23 10:20:39;;;;;;;;;;;;;;;-144.99;59.98;52305.41;5059861;28;20015;-58
2023/10/23 10:23:08;;;;;;;;;;;;;;;-144.99;59.67;52301.34;5062974;28;19929;-59
2023/10/23 10:25:35;;;;;;;;;;;;;;;-144.99;58.68;52248.34;5063305;28;19989;-59
2023/10/23 10:28:04;;;;;;;;;;;;;;;-144.99;58.29;52283.00;5081995;28;20022;-59
2023/10/23 10:30:45;;;;;;;;;;;;;;;-144.99;58.11;52309.50;5066295;28;20039;-59
2023/10/23 10:33:16;;;;;;;;;;;;;;;-144.99;57.29;52319.69;5067295;28;20371;-60
2023/10/23 10:35:49;;;;;;;;;;;;;;;-144.99;56.31;52256.50;5066640;28;19931;-58
2023/10/23 10:38:19;;;;;;;;;;;;;;;-144.99;56.24;52285.03;5067670;28;20522;-59
2023/10/23 10:40:56;;;;;;;;;;;;;;;-144.99;57.17;52325.81;5069324;28;19955;-59
2023/10/23 10:43:24;;;;;;;;;;;;;;;-144.99;58.58;52313.56;5066265;28;19928;-59
2023/10/23 10:45:50;;;;;;;;;;;;;;;-144.99;57.80;52354.34;5066387;28;19952;-59
2023/10/23 10:48:18;;;;;;;;;;;;;;;-144.99;57.80;52321.72;5065294;28;20431;-59
2023/10/23 10:50:46;;;;;;;;;;;;;;;-144.99;57.63;52321.72;5071234;28;19958;-59
2023/10/23 10:53:14;;;;;;;;;;;;;;;-144.99;57.13;52315.59;5069248;28;19924;-59
2023/10/23 10:55:40;;;;;;;;;;;;;;;-144.99;57.54;52329.88;5070140;28;19993;-60
2023/10/23 10:58:07;;;;;;;;;;;;;;;-144.99;56.55;52285.03;5066215;28;20007;-60
2023/10/23 11:00:37;;;;;;;;;;;;;;;-144.99;55.93;52289.13;5065810;28;20142;-59
2023/10/23 11:03:04;;;;;;;;;;;;;;;-144.99;54.73;52264.66;5067695;28;19934;-59
2023/10/23 11:05:33;;;;;;;;;;;;;;;-144.99;54.96;52236.13;5074629;28;19964;-60
2023/10/23 11:08:00;;;;;;;;;;;;;;;-144.99;54.07;52244.28;5064975;28;20368;-60
2023/10/23 11:10:26;;;;;;;;;;;;;;;-144.99;54.12;52325.81;5063054;28;20372;-59
2023/10/23 11:12:52;;;;;;;;;;;;;;;-144.99;55.22;52315.59;5064190;28;20033;-59
2023/10/23 11:15:19;;;;;;;;;;;;;;;-144.99;56.41;52340.06;5073757;28;20149;-60
2023/10/23 11:17:46;;;;;;;;;;;;;;;-144.99;56.12;52378.78;5074011;28;20370;-60
2023/10/23 11:20:13;;;;;;;;;;;;;;;-144.99;57.68;52374.72;5063010;28;20354;-60
2023/10/23 11:22:43;;;;;;;;;;;;;;;-144.99;58.01;52423.63;5063622;28;19967;-59
2023/10/23 11:25:10;;;;;;;;;;;;;;;-144.99;57.48;52346.19;5068155;28;19925;-60
2023/10/23 11:27:37;;;;;;;;;;;;;;;-144.99;56.92;52331.91;5072296;28;19928;-60
2023/10/23 11:30:04;;;;;;;;;;;;;;;-144.99;54.96;52138.28;5069125;28;19950;-67
2023/10/23 11:32:31;;;;;;;;;;;;;;;-144.99;53.82;52138.28;5074268;28;19955;-70
2023/10/23 11:35:00;;;;;;;;;;;;;;;-144.99;53.15;52113.84;5070750;28;20313;-69
2023/10/23 11:37:26;;;;;;;;;;;;;;;-144.99;52.57;52093.44;5069370;28;20019;-69
2023/10/23 11:39:56;;;;;;;;;;;;;;;-144.99;52.57;52207.59;5080291;28;20082;-69
2023/10/23 11:42:23;;;;;;;;;;;;;;;-144.99;52.50;52093.44;5062975;28;19932;-69
2023/10/23 11:44:49;;;;;;;;;;;;;;;-144.99;53.32;52113.84;5076943;28;20015;-69
2023/10/23 11:47:16;;;;;;;;;;;;;;;-144.99;53.30;52085.31;5072766;28;20388;-69
2023/10/23 11:49:48;;;;;;;;;;;;;;;-144.99;53.02;52105.69;5067636;28;20010;-69
2023/10/23 11:52:15;;;;;;;;;;;;;;;-144.99;53.08;52130.13;5062858;28;20372;-69
2023/10/23 11:54:41;;;;;;;;;;;;;;;-144.99;53.48;52101.59;5066333;28;19925;-69
2023/10/23 11:57:09;;;;;;;;;;;;;;;-144.99;53.38;52152.56;5078191;28;19967;-69
2023/10/23 11:59:39;;;;;;;;;;;;;;;-144.99;53.42;52089.38;5075635;28;20061;-69
2023/10/23 12:02:07;;;;;;;;;;;;;;;-144.99;52.95;52060.84;5079690;28;19990;-69
2023/10/23 12:04:35;;;;;;;;;;;;;;;-144.99;52.47;52052.69;5076632;28;20416;-69
2023/10/23 12:07:04;;;;;;;;;;;;;;;-144.99;52.63;52215.75;5075769;28;19982;-68
2023/10/23 12:09:30;;;;;;;;;;;;;;;-144.99;52.74;52199.44;5079743;28;19934;-68
2023/10/23 12:11:57;;;;;;;;;;;;;;;-144.99;53.60;52252.44;5132227;22;20243;-69
2023/10/23 12:14:25;;;;;;;;;;;;;;;-144.99;54.63;52158.66;5118658;27;20341;-69
2023/10/23 12:16:51;;;;;;;;;;;;;;;-144.99;54.09;52117.91;5142990;27;19949;-69
2023/10/23 12:19:19;;;;;;;;;;;;;;;-144.99;53.40;52099.56;5152348;27;19991;-69